Flight Track Log - Related Links

Times and Time Zones

All times are in EDT time to prevent confusion due to time zone crossing. See the KAP910 flight status page for this flight to view local times or setup timezone preferences in your user account.

Time Position Orientation Groundspeed Altitude Reporting Facility
EDT Latitude Longitude Course Direction KTS MPH feet Rate Location/Type
Tue 06:59:06 AM 41.6544 -70.5064 270° West 147 169 3,900  Level Boston Center
Tue 06:59:42 AM 41.6550 -70.5369 271° West 138 159 4,500 857 Climbing Boston Center
Tue 07:00:37 AM 41.6619 -70.5783 283° West 138 159 5,200 730 Climbing Boston Center
Tue 07:01:00 AM 41.6832 -70.6655 280° West  Level FlightAware Approximate
Tue 07:01:37 AM 41.6669 -70.6336 277° West 141 162 5,900  Level Boston Center
Tue 07:02:00 AM 41.6834 -70.7322 270° West  Level FlightAware Approximate
Tue 07:02:38 AM 41.6822 -70.6806 294° West 150 173 6,700  Level Boston Center
Tue 07:03:00 AM 41.6834 -70.7990 270° West  Level FlightAware Approximate
Tue 07:03:39 AM 41.7203 -70.7072 332° Northwest 153 176 7,400  Level Boston Center
Tue 07:04:00 AM 41.6833 -70.8658 270° West  Level FlightAware Approximate
Tue 07:04:39 AM 41.7561 -70.7397 326° Northwest 155 178 8,200  Level Boston Center
Tue 07:05:40 AM 41.7961 -70.7692 331° Northwest 160 184 8,500 142 Climbing Boston Center
Tue 07:06:46 AM 41.8447 -70.8125 326° Northwest 185 213 8,500  Level Boston Center
Tue 07:07:47 AM 41.8911 -70.8478 330° Northwest 192 221 8,500  Level Boston Center
Tue 07:09:37 AM 41.9667 -70.9167 326° Northwest 179 206 8,500  Level KA90
Tue 07:10:37 AM 42.0167 -70.9500 334° Northwest 177 204 8,500  Level KA90
Tue 07:11:43 AM 42.0500 -70.9833 323° Northwest 178 205 8,500  Level KA90
Tue 07:12:42 AM 42.1000 -71.0167 334° Northwest 179 206 8,500  Level KA90
Tue 07:13:41 AM 42.1500 -71.0500 334° Northwest 177 204 8,500  Level KA90
Tue 07:14:43 AM 42.1833 -71.0833 323° Northwest 178 205 8,500  Level KA90
Tue 07:15:48 AM 42.2333 -71.1167 334° Northwest 179 206 8,500  Level KA90
Tue 07:16:40 AM 42.2667 -71.1500 324° Northwest 177 204 8,500  Level KA90
Tue 07:17:41 AM 42.3167 -71.1833 334° Northwest 178 205 8,500  Level KA90
Tue 07:18:44 AM 42.3500 -71.2167 324° Northwest 177 204 8,500  Level KA90
Tue 07:19:44 AM 42.4000 -71.2500 334° Northwest 177 204 8,500  Level KA90
Tue 07:20:41 AM 42.4333 -71.3000 312° West 175 201 8,500  Level KA90
Tue 07:21:47 AM 42.4833 -71.3333 334° Northwest 175 201 8,500  Level KA90
Tue 07:22:43 AM 42.5167 -71.3667 324° Northwest 173 199 8,500  Level KA90
Tue 07:23:44 AM 42.5667 -71.4000 334° Northwest 173 199 8,500  Level KA90
Tue 07:24:44 AM 42.6000 -71.4333 324° Northwest 175 201 8,500  Level KA90
Tue 07:25:44 AM 42.6500 -71.4667 334° Northwest 176 203 8,500  Level KA90
Tue 07:26:41 AM 42.6833 -71.5000 324° Northwest 176 203 8,500  Level KA90
Tue 07:27:37 AM 42.7167 -71.5333 324° Northwest 176 203 8,500  Level KA90
Tue 07:28:35 AM 42.7667 -71.5667 334° Northwest 175 201 8,500  Level KA90
Tue 07:29:37 AM 42.8000 -71.6000 324° Northwest 174 200 8,500  Level KA90
Tue 07:30:38 AM 42.8500 -71.6333 334° Northwest 171 197 8,500  Level KA90
Tue 07:31:41 AM 42.8833 -71.6667 324° Northwest 172 198 8,500  Level KA90
Tue 07:32:38 AM 42.9167 -71.7000 324° Northwest 170 196 8,500  Level KA90
Tue 07:33:35 AM 42.9667 -71.7333 334° Northwest 171 197 8,500  Level KA90
Tue 07:34:38 AM 43.0000 -71.7667 324° Northwest 170 196 8,500  Level KA90
Tue 07:35:29 AM 43.0333 -71.8000 324° Northwest 170 196 8,500  Level KA90
Tue 07:36:31 AM 43.0833 -71.8333 334° Northwest 170 196 8,500 -49 Level KA90
Tue 07:37:31 AM 43.1167 -71.8667 324° Northwest 172 198 8,400 -209 Descending KA90
Tue 07:38:26 AM 43.1597 -71.9050 327° Northwest 165 190 8,100 -425 Descending Boston Center
Tue 07:39:38 AM 43.2142 -71.9500 329° Northwest 178 205 7,500 -500 Descending Boston Center
Tue 07:40:38 AM 43.2519 -71.9811 329° Northwest 183 211 7,000 -550 Descending Boston Center
Tue 07:41:38 AM 43.3000 -72.0236 327° Northwest 183 211 6,400 -550 Descending Boston Center
Tue 07:42:38 AM 43.3375 -72.0547 329° Northwest 183 211 5,900 -600 Descending Boston Center
Tue 07:43:38 AM 43.3856 -72.0944 329° Northwest 183 211 5,200 -700 Descending Boston Center

Login

Don't have an account? Register now (free) for customized features, flight alerts, and more!